Terminal Aerodrome Forecast
Issued by NWS

Home | Current Version | Previous Version | Text Only | Print | Product List | Glossary On
Versions: 1 2 3 4 5 6 7 8 9 10 11 12 13
000
FTUS45 KREV 232300
TAFMMH
TAF
KMMH 232340Z 2400/2424 34011KT P6SM FEW090 BKN170
     FM240200 32007KT P6SM SCT200
     FM240600 VRB04KT P6SM SCT220
     FM241600 12008KT P6SM FEW180
      AMD NOT SKED 2402/2414=

USA.gov is the U.S. government's official web portal to all federal, state and local government web resources and services.